Stations météo

réclame
Mon MeteoGroup
Sint Katelijne-Waver, Belgique (6439): Température de l'air & dewpoint: 26.05.2020 07:00:00 - 01.06.2020 07:00:00 (CEST)Sint Katelijne-Waver, Belgique (6439): Vitesse du vent & gusts: 26.05.2020 07:00:00 - 01.06.2020 07:00:00 (CEST)Sint Katelijne-Waver, Belgique (6439): Direction du vent: 26.05.2020 07:00:00 - 01.06.2020 07:00:00 (CEST)Sint Katelijne-Waver, Belgique (6439): reduced air pressure: 26.05.2020 07:00:00 - 01.06.2020 07:00:00 (CEST)Sint Katelijne-Waver, Belgique (6439): Ensoleillement: 26.05.2020 07:00:00 - 01.06.2020 07:00:00 (CEST)Sint Katelijne-Waver, Belgique (6439): Quantités de précipitations: 26.05.2020 07:00:00 - 01.06.2020 07:00:00 (CEST)
Date & Time tt [°C] td [°C] ff [km/h] ff [knt] fx [km/h] fx [knt] dd ppp [hPa] sd [min] rr [mm]
01.06.2020 07:00:00 - - - - - - - - - -
01.06.2020 06:00:00 11,2 7,1 7 4 10 5 NE 1022,2 0 0,0
01.06.2020 05:00:00 11,5 7,2 5 3 10 6 NE 1022,3 0 0,3
01.06.2020 04:00:00 12,0 6,6 5 3 9 5 ENE 1022,2 0 0,0
01.06.2020 03:00:00 12,2 6,3 4 2 7 4 ENE 1022,3 0 0,0
01.06.2020 02:00:00 14,3 5,8 4 2 13 7 NE 1022,2 0 0,0
01.06.2020 01:00:00 15,3 5,7 7 4 10 5 NE 1022,1 0 0,0
01.06.2020 00:00:00 16,5 5,6 6 4 14 8 NE 1022,2 0 0,0
31.05.2020 23:00:00 17,7 5,7 11 6 17 9 NE 1021,9 0 0,0
31.05.2020 22:00:00 18,9 5,8 11 6 19 11 NE 1021,6 0 0,0
31.05.2020 21:00:00 20,4 5,7 13 7 26 14 ENE 1021,2 57 0,0
31.05.2020 20:00:00 21,3 5,7 14 8 32 17 ENE 1021,0 60 0,0
31.05.2020 19:00:00 21,8 5,2 18 10 31 17 ENE 1020,8 60 0,0
31.05.2020 18:00:00 22,0 4,4 17 9 35 19 E 1021,0 60 0,0
31.05.2020 17:00:00 22,0 3,7 22 12 36 19 ENE 1021,4 60 0,0
31.05.2020 16:00:00 21,9 3,4 19 10 36 20 NE 1021,7 60 0,0
31.05.2020 15:00:00 21,2 3,4 23 12 35 19 ENE 1021,9 60 0,0
31.05.2020 14:00:00 20,6 3,6 14 8 38 21 E 1022,3 60 0,0
31.05.2020 13:00:00 20,5 5,1 16 9 30 16 NE 1022,5 59 0,0
31.05.2020 12:00:00 19,7 5,9 18 10 31 17 ENE 1022,8 59 0,0
31.05.2020 11:00:00 18,8 6,0 17 9 34 19 ENE 1023,1 60 0,0
31.05.2020 10:00:00 18,1 6,6 15 8 24 13 ENE 1023,1 60 0,0
31.05.2020 09:00:00 16,5 6,8 13 7 20 11 ENE 1023,0 60 0,0
31.05.2020 08:00:00 14,6 6,4 11 6 18 10 NE 1023,2 60 0,0
31.05.2020 07:00:00 12,7 5,5 7 4 10 5 NE 1023,0 52 0,0
31.05.2020 06:00:00 10,9 4,9 5 3 9 5 NE 1022,8 0 0,0
31.05.2020 05:00:00 12,4 5,4 9 5 15 8 NE 1022,6 0 0,0
31.05.2020 04:00:00 13,0 4,6 6 3 13 7 NE 1022,6 0 0,0
31.05.2020 03:00:00 14,1 4,8 9 5 12 7 ENE 1022,6 0 0,0
31.05.2020 02:00:00 15,0 4,9 7 4 12 7 NE 1022,4 0 0,0
31.05.2020 01:00:00 16,8 4,5 8 5 18 10 E 1022,3 0 0,0
31.05.2020 00:00:00 17,3 4,4 8 4 18 10 ENE 1021,9 0 0,0
30.05.2020 23:00:00 18,8 4,4 10 5 15 8 NE 1021,8 0 0,0
30.05.2020 22:00:00 20,0 4,8 9 5 25 13 ENE 1021,2 20 0,0
30.05.2020 21:00:00 21,9 4,9 13 7 26 14 ENE 1020,8 60 0,0
30.05.2020 20:00:00 23,1 4,7 11 6 28 15 ENE 1020,8 60 0,0
30.05.2020 19:00:00 23,7 4,5 16 9 29 16 ENE 1020,8 60 0,0
30.05.2020 18:00:00 24,2 5,0 13 7 31 17 ENE 1021,3 60 0,0
30.05.2020 17:00:00 24,0 5,0 15 8 32 17 E 1021,7 58 0,0
30.05.2020 16:00:00 23,7 4,7 16 8 35 19 E 1022,2 60 0,0
30.05.2020 15:00:00 23,2 4,3 17 9 38 20 E 1022,5 60 0,0
30.05.2020 14:00:00 22,6 4,1 18 10 37 20 E 1023,0 60 0,0
30.05.2020 13:00:00 22,4 4,1 16 9 34 19 E 1023,3 60 0,0
30.05.2020 12:00:00 21,5 4,0 16 9 39 21 E 1023,8 60 0,0
30.05.2020 11:00:00 20,5 5,0 16 8 29 16 E 1024,0 60 0,0
30.05.2020 10:00:00 19,1 6,3 14 8 22 12 E 1024,1 60 0,0
30.05.2020 09:00:00 16,8 6,4 12 6 20 11 E 1024,1 60 0,0
30.05.2020 08:00:00 13,9 6,0 11 6 18 10 ENE 1024,4 60 0,0
30.05.2020 07:00:00 11,9 5,4 8 5 12 7 NE 1024,2 52 0,0
30.05.2020 06:00:00 10,6 5,0 8 5 13 7 NE 1023,9 0 0,0
30.05.2020 05:00:00 11,5 5,0 7 4 13 7 NE 1024,0 0 0,0
30.05.2020 04:00:00 12,2 4,9 10 6 16 9 NE 1024,0 0 0,0
30.05.2020 03:00:00 12,0 5,4 6 4 10 6 NNE 1024,1 0 0,0
30.05.2020 02:00:00 12,5 5,8 7 4 10 6 N 1024,4 0 0,0
30.05.2020 01:00:00 13,9 4,9 6 3 9 5 N 1024,2 0 0,0
30.05.2020 00:00:00 15,9 4,8 7 4 11 6 NNE 1024,0 0 0,0
29.05.2020 23:00:00 17,4 5,0 8 4 11 6 NNE 1023,9 0 0,0
29.05.2020 22:00:00 19,2 5,0 6 3 17 9 NE 1023,7 18 0,0
29.05.2020 21:00:00 21,1 5,0 11 6 20 11 NE 1023,7 60 0,0
29.05.2020 20:00:00 22,2 4,8 11 6 26 14 ENE 1023,7 60 0,0
29.05.2020 19:00:00 22,5 3,8 11 6 24 13 E 1024,3 60 0,0
29.05.2020 18:00:00 22,9 4,4 14 8 25 14 E 1024,6 60 0,0
29.05.2020 17:00:00 22,9 3,9 15 8 26 14 ENE 1025,1 60 0,0
29.05.2020 16:00:00 22,6 3,9 14 8 29 16 NNE 1025,9 60 0,0
29.05.2020 15:00:00 22,0 4,0 17 9 30 16 NE 1026,6 60 0,0
29.05.2020 14:00:00 21,2 5,0 14 8 24 13 ENE 1027,5 60 0,0
29.05.2020 13:00:00 20,0 5,1 7 4 22 12 ENE 1028,3 60 0,0
29.05.2020 12:00:00 19,1 6,5 11 6 26 14 NE 1028,7 60 0,0
29.05.2020 11:00:00 17,0 7,6 10 5 18 10 NE 1029,2 60 0,0
29.05.2020 10:00:00 14,8 7,0 8 4 14 8 NE 1029,5 60 0,0
29.05.2020 09:00:00 12,7 6,4 9 5 19 10 ENE 1029,8 60 0,0
29.05.2020 08:00:00 10,9 5,7 11 6 20 11 NE 1030,0 60 0,0
29.05.2020 07:00:00 9,8 5,3 8 4 14 8 NE 1030,2 51 0,0
29.05.2020 06:00:00 9,3 4,9 6 3 18 10 NNE 1030,1 0 0,0
29.05.2020 05:00:00 10,0 5,3 8 4 14 7 NE 1030,1 0 0,0
29.05.2020 04:00:00 10,9 4,7 6 3 13 7 NE 1030,3 0 0,0
29.05.2020 03:00:00 12,0 4,3 9 5 14 8 NE 1030,6 0 0,0
29.05.2020 02:00:00 12,9 4,0 7 4 18 10 NNE 1030,5 0 0,0
29.05.2020 01:00:00 14,2 4,5 10 6 20 11 NNE 1030,7 0 0,0
29.05.2020 00:00:00 15,6 5,3 11 6 23 12 NNE 1030,6 0 0,0
28.05.2020 23:00:00 16,6 6,2 12 7 29 16 NNE 1030,4 0 0,0
28.05.2020 22:00:00 18,1 6,0 11 6 25 14 NNE 1030,2 17 0,0
28.05.2020 21:00:00 19,7 3,9 13 7 26 14 ENE 1030,0 60 0,0
28.05.2020 20:00:00 20,7 3,1 18 10 26 14 NE 1030,2 60 0,0
28.05.2020 19:00:00 21,3 3,3 17 9 28 15 ENE 1030,5 60 0,0
28.05.2020 18:00:00 21,3 3,4 17 9 31 17 NE 1030,9 60 0,0
28.05.2020 17:00:00 21,5 3,0 14 8 29 16 NE 1031,4 60 0,0
28.05.2020 16:00:00 21,4 4,1 13 7 35 19 NE 1031,9 60 0,0
28.05.2020 15:00:00 20,6 4,8 15 8 35 19 NE 1032,6 60 0,0
28.05.2020 14:00:00 20,0 4,4 14 8 32 18 ENE 1033,1 60 0,0
28.05.2020 13:00:00 19,0 4,7 20 11 37 20 NE 1033,7 60 0,0
28.05.2020 12:00:00 17,9 4,8 16 9 31 17 ENE 1034,3 60 0,0
28.05.2020 11:00:00 16,5 4,3 15 8 31 17 NE 1034,6 60 0,0
28.05.2020 10:00:00 14,8 4,6 23 12 32 17 ENE 1035,0 60 0,0
28.05.2020 09:00:00 13,1 5,7 19 10 33 18 ENE 1035,1 60 0,0
28.05.2020 08:00:00 11,6 5,8 14 8 25 13 NE 1035,0 60 0,0
28.05.2020 07:00:00 10,2 5,0 12 6 20 11 NNE 1035,0 51 0,0
28.05.2020 06:00:00 9,8 4,6 10 6 18 10 NNE 1034,6 0 0,0
28.05.2020 05:00:00 10,7 4,7 9 5 19 10 NE 1034,5 0 0,0
28.05.2020 04:00:00 11,7 5,6 10 6 24 13 NNE 1034,6 0 0,0
28.05.2020 03:00:00 12,4 8,4 11 6 21 11 NNE 1034,3 0 0,0
28.05.2020 02:00:00 11,9 9,0 7 4 12 6 N 1034,5 0 0,0
28.05.2020 01:00:00 12,5 8,7 5 3 12 7 N 1034,3 0 0,0
28.05.2020 00:00:00 13,4 8,0 8 4 16 8 NNW 1034,3 0 0,0
27.05.2020 23:00:00 14,3 7,0 5 3 17 9 N 1034,1 0 0,0
27.05.2020 22:00:00 15,9 6,8 7 4 19 11 NNW 1033,7 17 0,0
27.05.2020 21:00:00 18,4 6,6 13 7 30 16 NNW 1033,5 60 0,0
27.05.2020 20:00:00 20,3 5,8 18 10 29 16 NNW 1033,0 60 0,0
27.05.2020 19:00:00 21,6 8,3 14 8 29 16 N 1033,0 60 0,0
27.05.2020 18:00:00 22,3 9,0 14 8 33 18 N 1033,1 57 0,0
27.05.2020 17:00:00 22,6 8,7 16 9 29 16 NNE 1033,2 55 0,0
27.05.2020 16:00:00 22,9 8,7 12 7 29 16 N 1033,3 57 0,0
27.05.2020 15:00:00 22,7 7,3 12 7 24 13 NNW 1033,6 60 0,0
27.05.2020 14:00:00 22,3 6,5 14 8 34 18 NNE 1034,1 55 0,0
27.05.2020 13:00:00 21,8 8,0 10 6 20 11 NNW 1034,3 60 0,0
27.05.2020 12:00:00 20,7 8,7 9 5 16 9 N 1034,5 60 0,0
27.05.2020 11:00:00 19,0 11,0 7 4 18 10 NNW 1034,6 60 0,0
27.05.2020 10:00:00 17,5 11,4 6 3 12 6 NNW 1034,8 60 0,0
27.05.2020 09:00:00 15,7 11,0 6 4 13 7 N 1034,8 60 0,0
27.05.2020 08:00:00 14,1 9,8 4 2 10 6 N 1034,9 60 0,0
27.05.2020 07:00:00 11,7 8,6 4 2 8 4 N 1034,8 35 0,0
27.05.2020 06:00:00 10,4 7,8 4 2 8 4 NNW 1034,6 0 0,0
27.05.2020 05:00:00 10,8 8,2 4 2 4 2 NNW 1034,4 0 0,3
27.05.2020 04:00:00 11,5 7,8 4 2 5 3 N 1034,6 0 0,0
27.05.2020 03:00:00 13,0 7,8 4 2 7 4 N 1034,5 0 0,0
27.05.2020 02:00:00 14,4 7,5 4 2 9 5 N 1034,7 0 0,0
27.05.2020 01:00:00 15,6 7,8 6 3 11 6 N 1034,9 0 0,0
27.05.2020 00:00:00 17,0 7,7 7 4 14 8 N 1034,9 0 0,0
26.05.2020 23:00:00 18,2 6,4 7 4 21 11 N 1034,9 0 0,0
26.05.2020 22:00:00 19,7 6,8 9 5 21 11 N 1034,7 13 0,0
26.05.2020 21:00:00 21,6 7,9 8 4 24 13 N 1034,3 58 0,0
26.05.2020 20:00:00 22,8 8,7 11 6 32 18 NNW 1034,0 60 0,0
26.05.2020 19:00:00 23,7 9,1 10 5 26 14 NW 1034,0 52 0,0
26.05.2020 18:00:00 23,4 8,6 14 7 27 15 NNW 1034,2 36 0,0
26.05.2020 17:00:00 24,1 7,7 11 6 23 13 NNW 1034,3 36 0,0
26.05.2020 16:00:00 24,0 8,8 10 5 21 12 N 1034,7 50 0,0
26.05.2020 15:00:00 23,4 9,3 11 6 24 13 NNE 1035,0 59 0,0
26.05.2020 14:00:00 22,6 9,7 11 6 20 11 ENE 1035,5 60 0,0
26.05.2020 13:00:00 22,0 10,0 9 5 17 9 NNW 1035,9 60 0,0
26.05.2020 12:00:00 20,6 10,0 6 4 14 8 ENE 1036,1 60 0,0
26.05.2020 11:00:00 19,4 10,6 5 3 10 6 NW 1036,2 60 0,0
26.05.2020 10:00:00 17,4 10,0 5 3 9 5 SSE 1036,2 60 0,0
26.05.2020 09:00:00 15,5 10,6 4 2 7 4 ESE 1036,1 60 0,0
26.05.2020 08:00:00 12,6 10,3 4 2 4 2 NE 1036,3 60 0,0
26.05.2020 07:00:00 9,1 8,0 0 0 2 1 N 1035,9 20 0,0

tt = Température de l'air
td = dewpoint
ff = Vitesse du vent
fx = gusts
dd = Direction du vent
ppp = reduced air pressure
sd = Ensoleillement
rr = Quantités de précipitations

stations d'obs. à proximité